Aviation Digital Data Service (ADDS)

Output produced by METARs form (0622 UTC 22 October 2014)
found at http://www.aviationweather.gov/adds/metars/
 
KBFD 220553Z AUTO 03009KT 10SM OVC003 07/05 A3002 RMK AO2 SLP169 60000 T00670050 10083 20067 51004
KBFD 220541Z AUTO 01006KT 10SM OVC003 07/06 A3002 RMK AO2 CIG 003V007 T00670056
KBFD 220453Z AUTO 01008KT 10SM OVC006 07/06 A3001 RMK AO2 CIG 005V010 SLP167 T00720056 401060072
KBFD 220353Z AUTO 36006KT 10SM BKN006 OVC013 08/07 A3001 RMK AO2 CIG 004V009 SLP165 T00830067
KBFD 220253Z AUTO 36007KT 10SM OVC006 08/07 A3000 RMK AO2 SLP163 60000 T00830067 51019
KBFD 220203Z AUTO 03003KT 10SM BKN009 OVC014 08/07 A2999 RMK AO2 CIG 007V013 T00830067
KBFD 220153Z AUTO 35004KT 10SM SCT009 OVC014 08/07 A2999 RMK AO2 SLP157 T00830067
KBFD 220147Z AUTO 36005KT 10SM BKN009 OVC014 08/07 A2998 RMK AO2 CIG 007V013
KBFD 220141Z AUTO 36005KT 10SM OVC011 08/07 A2998 RMK AO2 T00830067
KBFD 220134Z AUTO 02005KT 10SM SCT009 BKN015 OVC021 08/07 A2998 RMK AO2 T00830067
KBFD 220100Z AUTO 34006KT 10SM BKN009 OVC015 08/07 A2996 RMK AO2 CIG 008V013 T00830067
KBFD 220053Z AUTO 34004KT 10SM SCT009 OVC013 08/07 A2996 RMK AO2 RAE02 SLP149 P0000 T00830067
KBFD 220006Z AUTO 33004KT 10SM SCT009 BKN019 OVC024 08/07 A2995 RMK AO2 RAE02 P0000 T00830067
KBFD 212353Z AUTO 33005KT 10SM -RA BKN010 BKN013 OVC022 08/07 A2994 RMK AO2 RAE28B53 CIG 006V012 SLP144 P0000 60005 T00830067 10106 20083 52019
KBFD 212341Z AUTO 33004KT 10SM BKN011 BKN017 OVC024 08/07 A2994 RMK AO2 RAE28 CIG 007V014 P0000 T00830067
KBFD 212315Z AUTO 33004KT 10SM -RA SCT009 OVC015 08/07 A2993 RMK AO2 P0000 T00830067
KBFD 212259Z AUTO 35005KT 10SM -RA FEW009 BKN014 OVC050 08/07 A2993 RMK AO2 P0000 T00830067
KBFD 212253Z AUTO 35005KT 10SM -RA FEW011 BKN026 OVC050 08/07 A2993 RMK AO2 SLP138 P0005 T00830067
KBFD 212235Z AUTO 34005KT 10SM -RA FEW009 SCT018 OVC046 08/07 A2992 RMK AO2 P0005 T00830067
KBFD 212153Z AUTO 34006KT 10SM -RA BKN015 OVC020 09/07 A2990 RMK AO2 RAB32 SLP129 P0000 T00940067
KBFD 212138Z AUTO 33004KT 10SM -RA BKN014 BKN022 OVC029 09/07 A2990 RMK AO2 RAB32 P0000 T00940067
KBFD 212053Z AUTO 33007KT 10SM BKN016 BKN021 OVC034 10/06 A2989 RMK AO2 SLP123 60000 T01000061 53011
KBFD 212041Z AUTO 34003KT 10SM BKN014 BKN021 OVC044 10/07 A2988 RMK AO2 T01000067
KBFD 212004Z AUTO 34005KT 10SM FEW009 SCT013 OVC037 10/07 A2987 RMK AO2 T01000067
KBFD 211953Z AUTO 35006KT 10SM SCT011 BKN015 OVC037 10/07 A2987 RMK AO2 RAE14 SLP117 P0000 T01000067
KBFD 211950Z AUTO 35007KT 10SM SCT011 BKN015 OVC035 09/07 A2987 RMK AO2 RAE14 P0000
KBFD 211943Z AUTO 34004KT 10SM BKN009 BKN013 OVC020 09/07 A2986 RMK AO2 RAE14 CIG 008V013 P0000 T00940072
KBFD 211941Z AUTO 34004KT 10SM BKN011 OVC020 09/07 A2986 RMK AO2 RAE14 P0000 T00940072
KBFD 211853Z AUTO 35007KT 10SM -RA BKN016 OVC024 10/07 A2985 RMK AO2 RAE20B51 SLP111 P0000 T01000067
KBFD 211842Z AUTO 01004KT 10SM SCT016 BKN024 OVC043 11/07 A2985 RMK AO2 RAE20 P0000 T01060067
KBFD 211753Z AUTO 34004KT 9SM -RA FEW007 SCT035 OVC050 10/06 A2985 RMK AO2 RAB33 SLP112 P0001 60002 T01000061 10100 20083 50000
KBFD 211720Z AUTO 32004KT 9SM FEW009 BKN033 OVC047 10/07 A2986 RMK AO2 T01000072
KBFD 211708Z AUTO 34005KT 8SM SCT009 BKN021 OVC036 10/07 A2986 RMK AO2 T01000072
KBFD 211653Z AUTO 29004KT 8SM FEW012 BKN022 OVC038 10/07 A2986 RMK AO2 SLP113 T01000072
KBFD 211604Z AUTO 25003KT 6SM BR FEW005 BKN023 OVC050 10/08 A2986 RMK AO2 T01000078
KBFD 211553Z AUTO 00000KT 5SM BR SCT005 BKN012 OVC032 09/08 A2986 RMK AO2 RAB13E40 SLP113 P0001 T00940078
KBFD 211538Z AUTO 00000KT 4SM -RA BR FEW005 SCT010 OVC032 09/08 A2986 RMK AO2 RAB13 P0001 T00940078
KBFD 211527Z AUTO 00000KT 2 1/2SM -RA BR FEW008 SCT011 OVC032 09/07 A2986 RMK AO2 RAB13 P0001 T00940072
KBFD 211505Z AUTO 24004KT 5SM BR BKN007 OVC035 09/07 A2985 RMK AO2 T00940072
KBFD 211453Z AUTO 00000KT 5SM BR SCT007 OVC033 09/08 A2985 RMK AO2 SLP112 T00940078 51011
KBFD 211430Z AUTO 29003KT 5SM BR FEW006 SCT021 OVC034 09/08 A2985 RMK AO2 T00940078
KBFD 211423Z AUTO 28003KT 5SM BR SCT006 BKN021 OVC034 09/08 A2985 RMK AO2 T00940078
KBFD 211353Z AUTO 28004KT 4SM BR BKN006 OVC011 09/08 A2985 RMK AO2 CIG 004V009 SLP112 T00890078
KBFD 211253Z AUTO VRB03KT 4SM BR BKN005 OVC029 09/08 A2984 RMK AO2 CIG 003V008 SLP106 T00890078
KBFD 211240Z AUTO 00000KT 4SM BR BKN005 OVC029 08/08 A2983 RMK AO2 CIG 003V008 T00830078
KBFD 211153Z AUTO 27004KT 7SM OVC003 08/07 A2982 RMK AO2 RAB17E29 SLP099 P0000 60011 70031 T00830072 10083 20078 53007
KBFD 211145Z AUTO 26003KT 6SM BR OVC003 08/07 A2982 RMK AO2 RAB17E29 P0000 T00830072
KBFD 211112Z AUTO 23003KT 7SM OVC002 08/07 A2981 RMK AO2 T00830072
KBFD 211053Z AUTO 23003KT 7SM OVC003 08/07 A2981 RMK AO2 RAE28 SLP095 P0001 T00830072
KBFD 210953Z AUTO 23004KT 6SM -RA BR OVC003 08/07 A2980 RMK AO2 SLP092 P0002 T00830067
KBFD 210853Z AUTO 20004KT 9SM -RA OVC003 08/07 A2980 RMK AO2 SLP091 P0003 60008 T00780067 56007
KBFD 210753Z AUTO 20004KT 7SM -RA OVC003 08/07 A2980 RMK AO2 SLP092 P0003 T00780067
KBFD 210653Z AUTO 21003KT 5SM -RA BR OVC004 08/07 A2981 RMK AO2 SLP095 P0002 T00780067
KBFD 210618Z AUTO 21004KT 7SM -RA OVC004 08/07 A2981 RMK AO2 P0001 T00780067
KBFD 210553Z AUTO 21003KT 7SM -RA OVC005 08/07 A2982 RMK AO2 SLP099 P0003 60020 T00780067 10100 20078 58015
KBFD 210453Z AUTO VRB04KT 6SM -RA BR BKN006 BKN012 OVC038 08/06 A2984 RMK AO2 SLP107 P0004 T00780061 401170000
KBFD 210429Z AUTO 21005KT 8SM -RA BKN006 OVC018 08/06 A2984 RMK AO2 P0002 T00780061
KBFD 210415Z AUTO VRB03KT 7SM -RA SCT007 BKN020 OVC045 08/06 A2985 RMK AO2 P0001 T00780061
KBFD 210353Z AUTO 20005KT 6SM -RA BR FEW009 OVC047 08/06 A2985 RMK AO2 SLP112 P0004 T00780061
KBFD 210316Z AUTO 20004KT 5SM -RA BR FEW007 FEW017 OVC034 08/06 A2986 RMK AO2 P0002 T00780061
KBFD 210304Z AUTO 20006KT 4SM -RA BR SCT018 SCT023 OVC030 08/06 A2986 RMK AO2 P0001 T00780061
KBFD 210253Z AUTO VRB04KT 5SM -RA BR BKN018 OVC025 08/06 A2987 RMK AO2 RAB0159 SLP118 P0002 60009 T00780061 58001
KBFD 210243Z AUTO VRB04KT 8SM -RA BKN023 BKN030 OVC038 08/06 A2987 RMK AO2 RAB0159 P0002 T00780061
KBFD 210153Z AUTO 20003KT 10SM BKN036 OVC043 08/06 A2987 RMK AO2 RAE40 SLP122 P0003 T00780056
KBFD 210053Z AUTO 21003KT 7SM -RA SCT037 OVC045 08/05 A2987 RMK AO2 RAB04 SLP122 P0004 T00830050
KBFD 202353Z AUTO 18004KT 10SM OVC046 10/04 A2987 RMK AO2 RAB02E36 SLP121 P0000 60000 T01000039 10117 20100 53002
KBFD 202253Z AUTO 21005KT 10SM SCT047 OVC060 10/04 A2987 RMK AO2 RAB18E44 SLP119 P0000 T01000039
KBFD 202153Z AUTO 19007KT 10SM BKN060 OVC090 11/03 A2986 RMK AO2 SLP117 T01060033
KBFD 202053Z AUTO 22003KT 10SM SCT050 BKN060 OVC090 11/04 A2986 RMK AO2 SLP118 60000 T01110039 58003
KBFD 201953Z AUTO 20009KT 10SM FEW028 OVC080 11/03 A2987 RMK AO2 SLP120 T01060033
KBFD 201853Z AUTO 22007KT 10SM FEW031 OVC065 11/03 A2987 RMK AO2 RAB38E52 SLP124 P0000 T01060033